Time;durP1;ratioP1;P1;durP2;ratioP2;P2;SDS_P1;SDS_P2;PMS_P1;PMS_P2;Temp;Humidity;BMP_temperature;BMP_pressure;BME280_temperature;BME280_humidity;BME280_pressure;Samples;Min_cycle;Max_cycle;Signal;HPM_P1;HPM_P2
2022/03/28 00:01:25;;;;;;;2.10;2.10;;;19.10;61.40;;;;;;4966031;28;46308;-76
2022/03/28 00:03:54;;;;;;;2.00;2.00;;;19.20;61.10;;;;;;4967322;28;43442;-76
2022/03/28 00:06:22;;;;;;;2.00;2.00;;;19.20;60.80;;;;;;4967580;28;43971;-76
2022/03/28 00:08:50;;;;;;;1.90;1.90;;;19.20;60.40;;;;;;4967662;28;43534;-75
2022/03/28 00:11:19;;;;;;;2.07;2.07;;;19.20;60.40;;;;;;4965549;28;45331;-76
2022/03/28 00:13:47;;;;;;;2.00;2.00;;;19.10;60.50;;;;;;4967313;28;43973;-75
2022/03/28 00:16:17;;;;;;;1.83;1.83;;;19.10;60.70;;;;;;4967333;28;43915;-75
2022/03/28 00:18:45;;;;;;;1.97;1.97;;;19.00;60.80;;;;;;4953451;28;43893;-75
2022/03/28 00:21:13;;;;;;;1.93;1.93;;;19.00;60.90;;;;;;4967358;28;43994;-76
2022/03/28 00:23:41;;;;;;;2.03;2.03;;;18.90;60.90;;;;;;4949486;28;44822;-76
2022/03/28 00:26:09;;;;;;;1.73;1.73;;;18.90;61.00;;;;;;4967944;28;43931;-76
2022/03/28 00:28:39;;;;;;;2.20;2.20;;;18.90;61.10;;;;;;4967614;28;43919;-76
2022/03/28 00:31:07;;;;;;;2.03;2.03;;;18.90;61.40;;;;;;4949630;28;45363;-76
2022/03/28 00:33:35;;;;;;;2.10;2.10;;;18.90;61.60;;;;;;4967335;28;44037;-76
2022/03/28 00:36:04;;;;;;;2.00;1.90;;;19.10;61.60;;;;;;4968442;28;43412;-75
2022/03/28 00:38:33;;;;;;;2.00;2.00;;;19.20;61.10;;;;;;4971011;28;43405;-75
2022/03/28 00:41:01;;;;;;;2.03;2.03;;;19.40;60.60;;;;;;4970244;28;44811;-75
2022/03/28 00:43:29;;;;;;;2.00;2.00;;;19.60;60.20;;;;;;4952938;28;45068;-76
2022/03/28 00:45:58;;;;;;;2.17;2.17;;;19.60;59.80;;;;;;4970753;28;43936;-76
2022/03/28 00:48:27;;;;;;;1.87;1.87;;;19.50;59.70;;;;;;4971190;28;44055;-76
2022/03/28 00:50:56;;;;;;;2.00;2.00;;;19.50;59.90;;;;;;4970382;28;44077;-76
2022/03/28 00:53:25;;;;;;;2.20;2.20;;;19.40;60.00;;;;;;4970137;28;43978;-75
2022/03/28 00:55:53;;;;;;;1.97;1.97;;;19.20;60.10;;;;;;4952895;28;43857;-76
2022/03/28 00:58:22;;;;;;;2.10;2.10;;;19.20;60.30;;;;;;4970732;28;44023;-75
2022/03/28 01:00:50;;;;;;;2.07;2.07;;;19.10;60.50;;;;;;4970794;28;43918;-78
2022/03/28 01:03:19;;;;;;;2.13;2.10;;;19.10;60.80;;;;;;4970886;28;43432;-79
2022/03/28 01:05:47;;;;;;;1.97;1.97;;;19.00;61.30;;;;;;4971446;28;44003;-79
2022/03/28 01:08:16;;;;;;;1.90;1.90;;;19.10;61.60;;;;;;4953234;28;43944;-79
2022/03/28 01:10:44;;;;;;;2.10;2.10;;;19.20;61.30;;;;;;4970906;28;43976;-79
2022/03/28 01:13:12;;;;;;;2.10;2.10;;;19.20;61.00;;;;;;4971253;28;44054;-79
2022/03/28 01:15:42;;;;;;;2.07;2.07;;;19.20;60.60;;;;;;4971287;28;43418;-79
2022/03/28 01:18:11;;;;;;;1.90;1.90;;;19.20;60.50;;;;;;4948005;28;43568;-79
2022/03/28 01:20:41;;;;;;;1.97;1.97;;;19.10;60.50;;;;;;4970848;28;43914;-81
2022/03/28 01:23:10;;;;;;;2.13;2.13;;;19.10;60.80;;;;;;4952699;28;44649;-79
2022/03/28 01:25:38;;;;;;;2.03;2.03;;;19.00;60.90;;;;;;4953128;28;44096;-79
2022/03/28 01:28:07;;;;;;;2.00;2.00;;;19.00;61.00;;;;;;4971180;28;44001;-81
2022/03/28 01:30:34;;;;;;;2.17;2.17;;;18.90;61.00;;;;;;4970279;28;44977;-79
2022/03/28 01:33:02;;;;;;;1.80;1.80;;;18.90;61.20;;;;;;4970866;28;44006;-79
2022/03/28 01:35:34;;;;;;;2.10;2.10;;;18.90;61.30;;;;;;4970903;28;43483;-81
2022/03/28 01:38:03;;;;;;;1.93;1.93;;;18.90;61.40;;;;;;4952979;28;43490;-80
2022/03/28 01:40:33;;;;;;;2.10;2.10;;;18.90;61.80;;;;;;4957764;28;44065;-82
2022/03/28 01:43:01;;;;;;;2.27;2.13;;;19.00;61.80;;;;;;4944375;28;44452;-81
2022/03/28 01:45:29;;;;;;;2.10;2.10;;;19.20;61.40;;;;;;4958190;28;44052;-79
2022/03/28 01:47:57;;;;;;;2.20;2.20;;;19.30;60.90;;;;;;4963987;28;43938;-79
2022/03/28 01:50:25;;;;;;;2.07;2.07;;;19.50;60.50;;;;;;4952760;28;45889;-79
2022/03/28 01:52:53;;;;;;;2.00;2.00;;;19.50;60.30;;;;;;4970310;28;44029;-81
2022/03/28 01:55:23;;;;;;;2.10;2.10;;;19.40;60.10;;;;;;4970440;28;44068;-79
2022/03/28 01:57:53;;;;;;;2.20;2.20;;;19.30;60.10;;;;;;4971529;28;44019;-79
2022/03/28 02:00:23;;;;;;;2.00;2.00;;;19.20;60.20;;;;;;4970689;28;44008;-79
2022/03/28 02:02:51;;;;;;;2.23;2.23;;;19.10;60.40;;;;;;4970339;28;44352;-79
2022/03/28 02:05:19;;;;;;;1.93;1.93;;;19.10;60.60;;;;;;4952555;28;44014;-79
2022/03/28 02:07:48;;;;;;;2.00;2.00;;;19.00;60.70;;;;;;4970333;28;43947;-79
2022/03/28 02:10:17;;;;;;;2.13;2.13;;;19.00;60.90;;;;;;4952106;28;46113;-79
2022/03/28 02:12:45;;;;;;;2.13;2.13;;;18.90;61.10;;;;;;4952489;28;44767;-80
2022/03/28 02:15:15;;;;;;;2.07;2.07;;;19.00;61.70;;;;;;4970194;28;44008;-79
2022/03/28 02:17:43;;;;;;;2.07;2.07;;;19.10;61.70;;;;;;4952781;28;43606;-79
2022/03/28 02:20:12;;;;;;;2.13;2.13;;;19.20;61.20;;;;;;4952644;28;45613;-80
2022/03/28 02:22:41;;;;;;;2.20;2.20;;;19.40;60.80;;;;;;4969643;28;44001;-79
2022/03/28 02:25:10;;;;;;;1.83;1.83;;;19.50;60.50;;;;;;4970530;28;43985;-80
2022/03/28 02:27:38;;;;;;;2.20;2.20;;;19.40;60.20;;;;;;4952848;28;43518;-81
2022/03/28 02:30:07;;;;;;;2.17;2.17;;;19.40;60.10;;;;;;4970190;28;43819;-80
2022/03/28 02:32:36;;;;;;;2.13;2.13;;;19.30;60.20;;;;;;4970284;28;43984;-80
2022/03/28 02:35:05;;;;;;;2.20;2.20;;;19.20;60.30;;;;;;4970283;28;43968;-79
2022/03/28 02:37:33;;;;;;;2.10;2.10;;;19.10;60.40;;;;;;4970116;28;43896;-80
2022/03/28 02:40:01;;;;;;;2.37;2.30;;;19.10;60.70;;;;;;4969490;28;44955;-81
2022/03/28 02:42:29;;;;;;;2.40;2.40;;;19.00;60.90;;;;;;4969783;28;43936;-80
2022/03/28 02:44:57;;;;;;;2.20;2.20;;;19.00;61.00;;;;;;4969978;28;43842;-79
2022/03/28 02:47:25;;;;;;;2.10;2.07;;;18.90;61.30;;;;;;4952545;28;43953;-79
2022/03/28 02:49:55;;;;;;;2.43;2.30;;;19.00;61.90;;;;;;4969334;28;44792;-79
2022/03/28 02:52:23;;;;;;;2.13;2.13;;;19.10;61.90;;;;;;4951733;28;44977;-78
2022/03/28 02:54:51;;;;;;;2.43;2.43;;;19.20;61.40;;;;;;4969812;28;43342;-78
2022/03/28 02:57:19;;;;;;;2.50;2.50;;;19.20;61.10;;;;;;4969982;28;43402;-79
2022/03/28 02:59:47;;;;;;;2.20;2.20;;;19.20;60.90;;;;;;4969434;28;44739;-79
2022/03/28 03:02:15;;;;;;;1.90;1.90;;;19.10;60.80;;;;;;4951881;28;44830;-79
2022/03/28 03:04:43;;;;;;;2.20;2.20;;;19.10;61.00;;;;;;4969952;28;43449;-79
2022/03/28 03:07:12;;;;;;;2.20;2.20;;;19.00;61.10;;;;;;4952407;28;43932;-78
2022/03/28 03:09:40;;;;;;;2.23;2.13;;;18.90;61.10;;;;;;4969549;28;44869;-79
2022/03/28 03:12:10;;;;;;;2.17;2.17;;;18.90;61.30;;;;;;4970408;28;43963;-79
2022/03/28 03:14:38;;;;;;;2.07;2.07;;;18.90;61.40;;;;;;4970336;28;43814;-79
2022/03/28 03:17:06;;;;;;;2.30;2.30;;;18.90;61.50;;;;;;4952494;28;43921;-81
2022/03/28 03:19:34;;;;;;;2.20;2.20;;;18.80;61.50;;;;;;4951610;28;45346;-80
2022/03/28 03:22:02;;;;;;;2.30;2.30;;;18.80;62.00;;;;;;4969439;28;43920;-80
2022/03/28 03:24:31;;;;;;;2.07;2.07;;;18.90;62.10;;;;;;4969556;28;44017;-80
2022/03/28 03:26:59;;;;;;;2.50;2.50;;;19.00;62.00;;;;;;4970078;28;43894;-79
2022/03/28 03:29:27;;;;;;;2.20;2.20;;;19.20;61.60;;;;;;4969536;28;43903;-82
2022/03/28 03:31:55;;;;;;;2.40;2.40;;;19.40;61.00;;;;;;4969648;28;44111;-79
2022/03/28 03:34:24;;;;;;;2.27;2.27;;;19.50;60.60;;;;;;4951988;28;44103;-80
2022/03/28 03:36:52;;;;;;;1.97;1.97;;;19.50;60.30;;;;;;4969899;28;43761;-80
2022/03/28 03:39:21;;;;;;;2.03;2.03;;;19.40;60.20;;;;;;4951853;28;45435;-79
2022/03/28 03:41:50;;;;;;;2.40;2.40;;;19.30;60.30;;;;;;4951873;28;44688;-81
2022/03/28 03:44:19;;;;;;;2.47;2.40;;;19.20;60.40;;;;;;4951959;28;43903;-80
2022/03/28 03:46:47;;;;;;;2.70;2.60;;;19.10;60.60;;;;;;4970380;28;43432;-80
2022/03/28 03:49:15;;;;;;;2.60;2.50;;;19.10;60.80;;;;;;4969381;28;43937;-77
2022/03/28 03:51:44;;;;;;;2.87;2.77;;;19.00;61.00;;;;;;4951129;28;44316;-78
2022/03/28 03:54:12;;;;;;;3.20;3.00;;;19.00;61.10;;;;;;4969210;28;43887;-78
2022/03/28 03:56:40;;;;;;;3.03;2.80;;;18.90;61.70;;;;;;4951523;28;44050;-78
2022/03/28 03:59:11;;;;;;;3.00;2.90;;;19.00;62.00;;;;;;4970266;28;43963;-82
2022/03/28 04:01:39;;;;;;;3.10;2.90;;;19.10;61.40;;;;;;4951543;28;44297;-79
2022/03/28 04:04:07;;;;;;;3.70;2.80;;;19.20;61.20;;;;;;4969519;28;43959;-78
2022/03/28 04:06:35;;;;;;;2.93;2.80;;;19.20;60.90;;;;;;4951598;28;43984;-77
2022/03/28 04:09:03;;;;;;;3.23;3.00;;;19.10;60.80;;;;;;4968452;28;43971;-78
2022/03/28 04:11:33;;;;;;;3.53;3.23;;;19.10;60.90;;;;;;4953032;28;45520;-79
2022/03/28 04:14:01;;;;;;;3.03;2.83;;;19.00;61.10;;;;;;4954951;28;43971;-80
2022/03/28 04:16:33;;;;;;;4.93;3.07;;;18.90;61.10;;;;;;4972505;28;44009;-78
2022/03/28 04:19:01;;;;;;;3.67;3.20;;;18.90;61.30;;;;;;4941268;28;45259;-79
2022/03/28 04:21:29;;;;;;;3.23;2.97;;;18.90;61.50;;;;;;4958862;28;43880;-79
2022/03/28 04:23:57;;;;;;;3.60;3.30;;;18.80;61.50;;;;;;4944346;28;43378;-77
2022/03/28 04:26:30;;;;;;;4.03;3.67;;;18.80;61.60;;;;;;4961039;28;43769;-78
2022/03/28 04:28:59;;;;;;;3.73;3.53;;;18.80;61.90;;;;;;4954037;28;44147;-77
2022/03/28 04:31:26;;;;;;;3.40;3.20;;;18.80;62.20;;;;;;4954257;28;45125;-78
2022/03/28 04:33:56;;;;;;;3.90;3.60;;;18.90;62.00;;;;;;4971477;28;43874;-78
2022/03/28 04:36:25;;;;;;;3.63;3.43;;;19.10;61.70;;;;;;4954190;28;43445;-79
2022/03/28 04:38:53;;;;;;;3.77;3.50;;;19.30;61.20;;;;;;4952791;28;45408;-78
2022/03/28 04:41:21;;;;;;;4.10;3.80;;;19.40;60.50;;;;;;4970893;28;43373;-77
2022/03/28 04:43:49;;;;;;;4.10;3.70;;;19.40;60.30;;;;;;4970812;28;43414;-78
2022/03/28 04:46:17;;;;;;;4.30;3.90;;;19.40;60.20;;;;;;4971165;28;44006;-78
2022/03/28 04:48:47;;;;;;;3.77;3.40;;;19.20;60.10;;;;;;4971899;28;43963;-78
2022/03/28 04:51:16;;;;;;;4.07;3.23;;;19.20;60.40;;;;;;4971457;28;43401;-78
2022/03/28 04:53:44;;;;;;;3.87;3.53;;;19.10;60.70;;;;;;4954257;28;43962;-78
2022/03/28 04:56:13;;;;;;;3.90;3.60;;;19.00;60.90;;;;;;4953941;28;43460;-78
2022/03/28 04:58:41;;;;;;;3.37;3.17;;;19.00;61.10;;;;;;4953747;28;46687;-78
2022/03/28 05:01:09;;;;;;;4.23;3.77;;;18.90;61.10;;;;;;4971188;28;43442;-78
2022/03/28 05:03:37;;;;;;;4.20;3.83;;;18.90;61.30;;;;;;4971616;28;43934;-79
2022/03/28 05:06:05;;;;;;;4.30;3.90;;;18.90;62.00;;;;;;4972244;28;43826;-78
2022/03/28 05:08:35;;;;;;;4.47;4.07;;;19.00;62.10;;;;;;4971265;28;44823;-79
2022/03/28 05:11:03;;;;;;;4.43;3.97;;;19.10;61.60;;;;;;4971149;28;43897;-79
2022/03/28 05:13:31;;;;;;;4.20;3.80;;;19.10;61.20;;;;;;4969481;28;43847;-79
2022/03/28 05:15:59;;;;;;;4.23;3.90;;;19.10;60.80;;;;;;4950095;28;44093;-79
2022/03/28 05:18:27;;;;;;;4.40;4.00;;;19.00;60.80;;;;;;4971539;28;43697;-78
2022/03/28 05:20:56;;;;;;;4.57;4.20;;;19.00;61.00;;;;;;4953728;28;44518;-79
2022/03/28 05:23:25;;;;;;;4.33;3.93;;;18.90;61.10;;;;;;4970567;28;44052;-79
2022/03/28 05:25:54;;;;;;;4.30;4.00;;;18.90;61.30;;;;;;4971804;28;43454;-78
2022/03/28 05:28:23;;;;;;;4.33;3.80;;;18.80;61.30;;;;;;4970991;28;44151;-79
2022/03/28 05:30:52;;;;;;;5.27;4.30;;;18.80;61.50;;;;;;4971003;28;44001;-78
2022/03/28 05:33:20;;;;;;;5.90;4.13;;;18.80;61.60;;;;;;4953464;28;44048;-78
2022/03/28 05:35:49;;;;;;;4.23;3.83;;;18.80;61.70;;;;;;4953781;28;44204;-81
2022/03/28 05:38:18;;;;;;;4.50;4.17;;;18.80;62.10;;;;;;4970721;28;43962;-80
2022/03/28 05:40:46;;;;;;;4.30;4.00;;;18.80;62.30;;;;;;4952777;28;45343;-78
2022/03/28 05:43:15;;;;;;;5.70;4.43;;;18.90;62.00;;;;;;4971496;28;43986;-79
2022/03/28 05:45:43;;;;;;;4.47;4.07;;;19.10;61.70;;;;;;4971695;28;43958;-78
2022/03/28 05:48:11;;;;;;;4.90;4.40;;;19.30;61.20;;;;;;4953275;28;45326;-78
2022/03/28 05:50:42;;;;;;;4.57;4.10;;;19.40;60.80;;;;;;4971351;28;44099;-78
2022/03/28 05:53:13;;;;;;;5.37;4.33;;;19.40;60.50;;;;;;4971551;28;43934;-78
2022/03/28 05:55:41;;;;;;;4.70;4.30;;;19.40;60.40;;;;;;4953766;28;43939;-78
2022/03/28 05:58:09;;;;;;;4.70;4.27;;;19.30;60.30;;;;;;4953113;28;45014;-78
2022/03/28 06:00:39;;;;;;;4.63;4.23;;;19.20;60.40;;;;;;4953600;28;44047;-78
2022/03/28 06:03:08;;;;;;;4.43;4.13;;;19.10;60.70;;;;;;4970627;28;43429;-78
2022/03/28 06:05:56;;;;;;;4.10;3.80;;;19.00;60.80;;;;;;4952998;28;43951;-78
2022/03/28 06:08:24;;;;;;;4.57;4.27;;;19.00;61.20;;;;;;4969936;28;45101;-78
2022/03/28 06:10:52;;;;;;;4.37;4.00;;;18.90;61.30;;;;;;4970347;28;43934;-78
2022/03/28 06:13:20;;;;;;;4.50;4.20;;;18.90;62.10;;;;;;4952952;28;43896;-78
2022/03/28 06:15:49;;;;;;;4.23;3.97;;;19.00;62.20;;;;;;4970362;28;43891;-79
2022/03/28 06:18:18;;;;;;;4.10;3.90;;;19.10;61.70;;;;;;4970136;28;44332;-79
2022/03/28 06:20:46;;;;;;;3.70;3.50;;;19.20;61.40;;;;;;4952002;28;44527;-80
2022/03/28 06:23:14;;;;;;;4.50;4.10;;;19.20;61.00;;;;;;4969747;28;44068;-79
2022/03/28 06:25:42;;;;;;;4.20;3.90;;;19.10;60.80;;;;;;4970179;28;43346;-79
2022/03/28 06:28:12;;;;;;;4.40;4.10;;;19.10;61.70;;;;;;4952698;28;44081;-78
2022/03/28 06:30:40;;;;;;;4.10;3.80;;;19.00;61.10;;;;;;4970318;28;44025;-77
2022/03/28 06:33:10;;;;;;;5.07;4.57;;;18.90;61.30;;;;;;4969994;28;44023;-78
2022/03/28 06:35:38;;;;;;;4.40;4.00;;;18.90;61.50;;;;;;4969833;28;44026;-78
2022/03/28 06:38:07;;;;;;;4.60;4.20;;;18.90;61.60;;;;;;4970028;28;43973;-79
2022/03/28 06:40:35;;;;;;;4.40;4.00;;;18.80;61.70;;;;;;4969681;28;44243;-79
2022/03/28 06:43:03;;;;;;;4.33;4.03;;;18.80;61.70;;;;;;4970013;28;43910;-80
2022/03/28 06:45:31;;;;;;;5.33;4.57;;;18.80;61.90;;;;;;4952216;28;43634;-79
2022/03/28 06:47:59;;;;;;;4.20;3.90;;;18.80;62.40;;;;;;4951877;28;45737;-80
2022/03/28 06:50:48;;;;;;;4.30;4.00;;;18.90;62.40;;;;;;4951385;28;44008;-80
2022/03/28 06:53:16;;;;;;;4.60;4.30;;;19.10;62.10;;;;;;4951717;28;44079;-79
2022/03/28 06:55:45;;;;;;;4.13;3.90;;;19.20;61.50;;;;;;4952013;28;44127;-79
2022/03/28 06:58:13;;;;;;;4.77;4.37;;;19.40;61.00;;;;;;4969566;28;44034;-79
2022/03/28 07:00:41;;;;;;;4.30;4.00;;;19.40;60.60;;;;;;4969340;28;43918;-80
2022/03/28 07:03:09;;;;;;;4.40;4.00;;;19.40;60.60;;;;;;4951861;28;44020;-79
2022/03/28 07:05:42;;;;;;;4.23;3.93;;;19.30;60.60;;;;;;4952470;28;44008;-79
2022/03/28 07:08:12;;;;;;;3.90;3.70;;;19.20;60.70;;;;;;4952107;28;45670;-78
2022/03/28 07:10:40;;;;;;;4.00;3.80;;;19.10;61.00;;;;;;4939590;28;44330;-79
2022/03/28 07:13:08;;;;;;;4.10;3.80;;;19.00;61.20;;;;;;4957814;28;44114;-79
2022/03/28 07:15:36;;;;;;;4.13;3.90;;;18.90;61.30;;;;;;4940270;28;44237;-79
2022/03/28 07:18:07;;;;;;;4.30;4.00;;;18.90;61.50;;;;;;4957328;28;43998;-79
2022/03/28 07:20:36;;;;;;;4.27;3.97;;;18.80;61.60;;;;;;4945442;28;44041;-78
2022/03/28 07:23:04;;;;;;;4.43;4.10;;;18.80;62.20;;;;;;4951482;28;43935;-79
2022/03/28 07:25:34;;;;;;;4.53;4.23;;;18.90;62.40;;;;;;4952067;28;43978;-81
2022/03/28 07:28:07;;;;;;;4.50;4.17;;;19.00;62.10;;;;;;4951434;28;45428;-80
2022/03/28 07:30:35;;;;;;;4.00;3.80;;;19.10;61.60;;;;;;4969241;28;43989;-79
2022/03/28 07:33:04;;;;;;;3.93;3.63;;;19.10;61.10;;;;;;4951197;28;44008;-79
2022/03/28 07:35:35;;;;;;;4.30;4.00;;;19.10;61.30;;;;;;4969166;28;44105;-78
2022/03/28 07:38:06;;;;;;;4.37;4.10;;;19.00;61.30;;;;;;4950708;28;45724;-78
2022/03/28 07:40:36;;;;;;;4.10;3.90;;;18.90;61.40;;;;;;4968701;28;43494;-79
2022/03/28 07:43:04;;;;;;;4.00;3.80;;;18.90;61.60;;;;;;4968926;28;43983;-78
2022/03/28 07:45:32;;;;;;;4.10;3.90;;;18.80;61.70;;;;;;4968028;28;43966;-78
2022/03/28 07:47:59;;;;;;;3.70;3.50;;;18.80;61.90;;;;;;4969046;28;43934;-78
2022/03/28 07:50:27;;;;;;;3.87;3.67;;;18.80;62.00;;;;;;4968799;28;44112;-78
2022/03/28 07:52:55;;;;;;;3.90;3.73;;;18.80;62.40;;;;;;4968749;28;43945;-78
2022/03/28 07:55:26;;;;;;;4.07;3.77;;;18.70;62.10;;;;;;4951337;28;44038;-80
2022/03/28 07:57:55;;;;;;;4.23;3.93;;;18.70;62.50;;;;;;4968765;28;43691;-78
2022/03/28 08:00:23;;;;;;;3.93;3.73;;;18.80;62.50;;;;;;4968326;28;43987;-79
2022/03/28 08:02:53;;;;;;;3.80;3.60;;;19.00;62.20;;;;;;4968681;28;43938;-78
2022/03/28 08:05:21;;;;;;;4.03;3.83;;;19.20;61.70;;;;;;4951785;28;43943;-78
2022/03/28 08:07:49;;;;;;;3.73;3.63;;;19.40;61.30;;;;;;4968786;28;43978;-79
2022/03/28 08:10:18;;;;;;;3.70;3.60;;;19.50;60.80;;;;;;4968439;28;43374;-79
2022/03/28 08:12:46;;;;;;;3.77;3.57;;;19.50;60.60;;;;;;4951150;28;43467;-79
2022/03/28 08:15:15;;;;;;;4.00;3.80;;;19.40;60.50;;;;;;4951624;28;43994;-79
2022/03/28 08:17:43;;;;;;;3.80;3.60;;;19.30;60.60;;;;;;4968486;28;44002;-79
2022/03/28 08:20:12;;;;;;;3.83;3.63;;;19.20;60.80;;;;;;4969326;28;44384;-79
2022/03/28 08:22:44;;;;;;;3.20;3.10;;;19.10;61.10;;;;;;4968721;28;43938;-79
2022/03/28 08:25:13;;;;;;;3.73;3.57;;;19.00;61.20;;;;;;4969404;28;43483;-79
2022/03/28 08:27:41;;;;;;;3.67;3.47;;;19.00;61.50;;;;;;4968863;28;44805;-79
2022/03/28 08:30:12;;;;;;;4.03;3.73;;;18.90;61.70;;;;;;4968240;28;44067;-80
2022/03/28 08:32:42;;;;;;;3.57;3.40;;;18.90;62.30;;;;;;4951358;28;43950;-79
2022/03/28 08:35:11;;;;;;;3.83;3.63;;;19.00;62.20;;;;;;4951717;28;44048;-79
2022/03/28 08:37:39;;;;;;;3.60;3.40;;;19.10;61.80;;;;;;4968481;28;43942;-80
2022/03/28 08:40:12;;;;;;;3.90;3.70;;;19.20;61.50;;;;;;4968285;28;44244;-79
2022/03/28 08:42:40;;;;;;;3.03;2.93;;;19.20;61.30;;;;;;4925955;28;43893;-78
2022/03/28 08:45:11;;;;;;;3.40;3.20;;;19.10;61.40;;;;;;4955114;28;43951;-78
2022/03/28 08:47:40;;;;;;;3.73;3.53;;;19.00;61.40;;;;;;4956839;28;44045;-80
2022/03/28 08:50:30;;;;;;;3.73;3.43;;;18.90;61.60;;;;;;4968288;28;44015;-78
2022/03/28 08:52:58;;;;;;;3.60;3.40;;;18.90;61.80;;;;;;4968751;28;43963;-79
2022/03/28 08:55:26;;;;;;;3.23;3.13;;;18.80;61.90;;;;;;4968851;28;44042;-79
2022/03/28 08:57:54;;;;;;;3.60;3.40;;;18.80;62.00;;;;;;4970534;28;43990;-79
2022/03/28 09:00:22;;;;;;;3.80;3.60;;;18.80;62.20;;;;;;4971732;28;43989;-79
2022/03/28 09:02:57;;;;;;;3.87;3.67;;;18.80;62.30;;;;;;4954315;28;43952;-80
2022/03/28 09:05:34;;;;;;;3.77;3.57;;;18.80;62.50;;;;;;4971773;28;43852;-79
2022/03/28 09:08:02;;;;;;;8.17;3.83;;;18.80;62.80;;;;;;4971123;28;44990;-78
2022/03/28 09:10:32;;;;;;;6.83;3.77;;;19.00;62.00;;;;;;4971233;28;44005;-78
2022/03/28 09:13:05;;;;;;;13.43;3.90;;;19.20;61.40;;;;;;4971848;28;43481;-79
2022/03/28 09:15:48;;;;;;;16.93;4.53;;;19.30;60.80;;;;;;4945995;28;43548;-82
2022/03/28 09:18:23;;;;;;;11.10;4.87;;;19.40;60.70;;;;;;4949569;28;45881;-80
2022/03/28 09:20:55;;;;;;;10.40;4.40;;;19.40;60.10;;;;;;4953740;28;45727;-78
2022/03/28 09:23:33;;;;;;;6.07;3.77;;;19.40;60.20;;;;;;4971258;28;43927;-79
2022/03/28 09:26:07;;;;;;;13.80;4.33;;;19.30;60.40;;;;;;4954895;28;44000;-78
2022/03/28 09:28:46;;;;;;;11.87;4.63;;;19.20;60.60;;;;;;4972134;28;43953;-79
2022/03/28 09:31:23;;;;;;;7.80;4.43;;;19.10;60.90;;;;;;4946159;28;44412;-78
2022/03/28 09:33:59;;;;;;;9.30;4.00;;;19.10;61.30;;;;;;4971245;28;43334;-79
2022/03/28 09:36:49;;;;;;;9.53;3.63;;;19.00;61.50;;;;;;4953875;28;44060;-78
2022/03/28 09:39:21;;;;;;;6.57;4.17;;;19.00;62.10;;;;;;4971126;28;44070;-78
2022/03/28 09:42:00;;;;;;;6.70;4.03;;;19.00;62.20;;;;;;4958484;28;44113;-78
2022/03/28 09:44:35;;;;;;;4.77;3.80;;;19.10;61.90;;;;;;4971213;28;43946;-78
2022/03/28 09:47:10;;;;;;;7.33;4.03;;;19.20;61.50;;;;;;4972007;28;44025;-78
2022/03/28 09:49:38;;;;;;;4.67;4.10;;;19.20;61.30;;;;;;4971485;28;43689;-79
2022/03/28 09:52:10;;;;;;;5.70;3.67;;;19.10;61.30;;;;;;4971284;28;43988;-79
2022/03/28 09:54:50;;;;;;;5.40;3.70;;;19.10;61.50;;;;;;4971606;28;44026;-78
2022/03/28 09:57:21;;;;;;;7.27;3.53;;;19.00;61.60;;;;;;4953827;28;43915;-78
2022/03/28 09:59:49;;;;;;;6.87;3.90;;;18.90;61.80;;;;;;4970872;28;43981;-79
2022/03/28 10:02:26;;;;;;;6.33;3.50;;;18.90;62.00;;;;;;4953589;28;44655;-78
2022/03/28 10:04:56;;;;;;;3.93;3.50;;;18.90;62.10;;;;;;4959946;28;43906;-78
2022/03/28 10:07:25;;;;;;;3.70;3.40;;;18.90;62.30;;;;;;4971218;28;44019;-78
2022/03/28 10:09:53;;;;;;;5.13;3.60;;;18.80;62.40;;;;;;4951563;28;45775;-79
2022/03/28 10:12:23;;;;;;;3.43;3.23;;;18.80;62.40;;;;;;4952711;28;43988;-79
2022/03/28 10:14:54;;;;;;;4.03;3.73;;;18.80;62.50;;;;;;4970374;28;44027;-79
2022/03/28 10:17:24;;;;;;;3.60;3.30;;;18.80;62.60;;;;;;4952804;28;43675;-79
2022/03/28 10:19:52;;;;;;;3.60;3.37;;;18.80;62.60;;;;;;4969141;28;43959;-78
2022/03/28 10:22:26;;;;;;;3.67;3.30;;;18.80;62.60;;;;;;4951442;28;44390;-78
2022/03/28 10:24:54;;;;;;;3.70;3.40;;;18.80;62.70;;;;;;4970783;28;43955;-78
2022/03/28 10:27:23;;;;;;;4.00;3.33;;;18.80;62.70;;;;;;4972148;28;43926;-79
2022/03/28 10:29:53;;;;;;;3.77;3.40;;;18.80;62.70;;;;;;4971553;28;43899;-84
2022/03/28 10:32:21;;;;;;;4.00;3.13;;;18.80;62.80;;;;;;4970921;28;43775;-82
2022/03/28 10:34:52;;;;;;;5.47;3.27;;;18.90;62.70;;;;;;4952694;28;44051;-79
2022/03/28 10:37:33;;;;;;;4.33;3.50;;;19.00;62.50;;;;;;4953925;28;44008;-78
2022/03/28 10:40:18;;;;;;;6.70;3.40;;;19.20;62.00;;;;;;4970296;28;44072;-78
2022/03/28 10:42:46;;;;;;;3.90;3.50;;;19.40;61.10;;;;;;4971013;28;43949;-78
2022/03/28 10:45:19;;;;;;;4.23;3.27;;;19.60;60.60;;;;;;4952455;28;43417;-78
2022/03/28 10:47:50;;;;;;;3.00;2.90;;;19.80;59.90;;;;;;4952431;28;43945;-79
2022/03/28 10:50:20;;;;;;;3.53;3.30;;;19.90;59.50;;;;;;4951938;28;44083;-79
2022/03/28 10:55:47;;;;;;;3.20;3.00;;;20.00;59.20;;;;;;5115001;27;44266;-73
2022/03/28 10:58:20;;;;;;;3.40;3.20;;;20.30;58.60;;;;;;5111226;27;44730;-74
2022/03/28 11:01:27;;;;;;;3.63;3.37;;;20.40;58.30;;;;;;5097768;27;44040;-73
2022/03/28 11:03:58;;;;;;;3.17;2.97;;;20.40;57.90;;;;;;5108425;27;44096;-74
2022/03/28 11:06:47;;;;;;;3.33;3.13;;;20.50;57.60;;;;;;5107669;27;43909;-73
2022/03/28 11:09:15;;;;;;;3.63;3.43;;;20.60;57.60;;;;;;5088709;27;43904;-73
2022/03/28 11:11:57;;;;;;;3.83;3.63;;;20.60;57.40;;;;;;5108835;27;44059;-71
2022/03/28 11:14:39;;;;;;;4.53;3.90;;;20.60;57.30;;;;;;5107725;27;44008;-74
2022/03/28 11:17:14;;;;;;;4.20;3.60;;;20.60;57.30;;;;;;5105380;27;43624;-75
2022/03/28 11:19:52;;;;;;;8.57;3.50;;;20.50;57.50;;;;;;5105375;27;44378;-73
2022/03/28 11:22:20;;;;;;;7.60;4.03;;;20.30;57.60;;;;;;5105307;27;44038;-74
2022/03/28 11:24:51;;;;;;;12.13;4.27;;;20.20;58.30;;;;;;5102680;27;44019;-72
2022/03/28 11:27:21;;;;;;;14.83;4.67;;;20.20;58.80;;;;;;5104275;27;44144;-73
2022/03/28 11:29:49;;;;;;;11.37;4.10;;;20.10;58.20;;;;;;5104041;27;44099;-73
2022/03/28 11:32:18;;;;;;;8.80;4.60;;;20.20;58.20;;;;;;5104277;27;43988;-74
2022/03/28 11:34:50;;;;;;;14.47;4.77;;;20.00;58.10;;;;;;5105529;27;43482;-73
2022/03/28 11:37:19;;;;;;;22.47;5.77;;;20.00;58.50;;;;;;5104853;27;44048;-73
2022/03/28 11:39:55;;;;;;;15.13;6.03;;;20.00;58.50;;;;;;5105042;27;43944;-74
2022/03/28 11:42:25;;;;;;;16.17;5.07;;;20.00;58.20;;;;;;5104664;27;43972;-72
2022/03/28 11:44:53;;;;;;;17.77;5.37;;;20.20;57.50;;;;;;5102771;27;43865;-74
2022/03/28 11:47:21;;;;;;;16.17;5.97;;;20.30;57.40;;;;;;5103008;27;44857;-72
2022/03/28 11:49:57;;;;;;;13.40;5.30;;;20.40;57.00;;;;;;5103500;27;44118;-74
2022/03/28 11:52:26;;;;;;;11.27;5.40;;;20.50;56.80;;;;;;5103448;27;43936;-73
2022/03/28 11:54:55;;;;;;;14.63;5.80;;;20.40;56.60;;;;;;5103677;27;44806;-74
2022/03/28 12:00:13;;;;;;;15.53;5.70;;;20.30;57.40;;;;;;5103572;27;43814;-74
2022/03/28 12:02:49;;;;;;;16.53;7.03;;;20.30;57.40;;;;;;5100432;27;43988;-74
2022/03/28 12:05:27;;;;;;;14.20;6.70;;;20.40;56.40;;;;;;5100364;27;43992;-72
2022/03/28 12:07:55;;;;;;;20.03;6.73;;;20.40;56.20;;;;;;5089716;27;44733;-71
2022/03/28 12:10:24;;;;;;;15.17;6.73;;;20.30;56.40;;;;;;5089494;28;43945;-73
2022/03/28 12:12:54;;;;;;;16.57;6.73;;;20.20;57.00;;;;;;5089245;28;43901;-73
2022/03/28 12:15:29;;;;;;;19.63;7.83;;;20.20;57.00;;;;;;5089853;27;43308;-73
2022/03/28 12:17:59;;;;;;;18.70;8.40;;;20.20;56.50;;;;;;5076547;28;43939;-72
2022/03/28 12:20:29;;;;;;;22.77;8.63;;;20.30;55.00;;;;;;5077988;28;43965;-73
2022/03/28 12:22:58;;;;;;;19.13;10.83;;;20.40;54.00;;;;;;5089897;27;44017;-72
2022/03/28 12:25:29;;;;;;;18.27;10.87;;;20.40;51.30;;;;;;5089734;27;44083;-73
2022/03/28 12:27:59;;;;;;;22.03;12.73;;;20.50;51.00;;;;;;5089513;28;44326;-73
2022/03/28 12:30:32;;;;;;;16.57;11.80;;;20.40;50.70;;;;;;5087813;28;45283;-72
2022/03/28 12:33:07;;;;;;;20.40;12.00;;;20.30;51.50;;;;;;5089216;27;43984;-73
2022/03/28 12:35:38;;;;;;;22.80;11.90;;;20.20;52.10;;;;;;5089015;27;44126;-72
2022/03/28 12:38:07;;;;;;;20.00;11.73;;;20.20;53.30;;;;;;5087348;28;45719;-73
2022/03/28 12:40:35;;;;;;;23.10;11.47;;;20.20;53.00;;;;;;5088983;28;44247;-73
2022/03/28 12:43:05;;;;;;;20.80;11.67;;;20.30;52.80;;;;;;5089570;28;44035;-73
2022/03/28 12:45:33;;;;;;;17.50;10.83;;;20.20;53.00;;;;;;5090042;28;43981;-75
2022/03/28 12:48:04;;;;;;;18.27;10.57;;;20.20;53.00;;;;;;5090277;28;44114;-73
2022/03/28 12:50:31;;;;;;;13.43;10.27;;;20.10;54.00;;;;;;5089769;28;44356;-73
2022/03/28 12:53:13;;;;;;;18.00;10.63;;;20.10;53.70;;;;;;5089445;27;43801;-73
2022/03/28 12:55:43;;;;;;;20.27;10.30;;;20.20;52.90;;;;;;5089493;28;44053;-73
2022/03/28 12:58:12;;;;;;;17.73;10.90;;;20.20;53.00;;;;;;5075588;28;43984;-73
2022/03/28 13:00:40;;;;;;;11.83;10.03;;;20.20;53.10;;;;;;5076785;28;44133;-73
2022/03/28 13:03:09;;;;;;;21.67;9.90;;;20.20;53.10;;;;;;5076365;28;43889;-74
2022/03/28 13:05:37;;;;;;;14.47;10.00;;;20.10;54.40;;;;;;5061590;28;43422;-73